Adelphia, New Jersey
Current Conditions -  °F | °C
As of 9:15 AM on Wednesday 28 Jan 2015 (Local Time) from KBLM Reporting Station
Clear Clear  
Wind Chill:   Ceiling: Unl
Heat Index: 19°   Visibility: 10mi
Dew Point:   Wind: 17mph
Humidity: 46%   Direction: 300°WNW
Pressure: 30.03"   Gusts: 22mph
Location:  40.22°N, 74.26°W
Report Text: KBLM 281415Z AUTO 30015G19KT 10SM CLR M07/M17 A3003 RMK AO1
Loading
Personal Weather Stations






























Interactive Weather Map New forecast layout! Learn more

10-Day Weather Forecast

Advertisements
Track Severe Weather on mobile